sensor_id;sensor_type;location;lat;lon;timestamp;temperature;humidity
18287;DHT22;9269;50.838;12.094;2024-01-15T00:01:26;3.60;55.00
18287;DHT22;9269;50.838;12.094;2024-01-15T00:03:55;3.60;54.80
18287;DHT22;9269;50.838;12.094;2024-01-15T00:06:26;3.80;54.40
18287;DHT22;9269;50.838;12.094;2024-01-15T00:08:59;3.80;54.40
18287;DHT22;9269;50.838;12.094;2024-01-15T00:11:32;3.70;54.70
18287;DHT22;9269;50.838;12.094;2024-01-15T00:14:04;3.60;54.60
18287;DHT22;9269;50.838;12.094;2024-01-15T00:16:33;3.70;54.40
18287;DHT22;9269;50.838;12.094;2024-01-15T00:23:14;3.90;54.40
18287;DHT22;9269;50.838;12.094;2024-01-15T00:25:44;3.70;54.50
18287;DHT22;9269;50.838;12.094;2024-01-15T00:28:14;3.60;54.30
18287;DHT22;9269;50.838;12.094;2024-01-15T00:30:44;3.70;54.50
18287;DHT22;9269;50.838;12.094;2024-01-15T00:33:15;3.70;54.30
18287;DHT22;9269;50.838;12.094;2024-01-15T00:35:52;3.70;54.20
18287;DHT22;9269;50.838;12.094;2024-01-15T00:38:23;3.80;54.40
18287;DHT22;9269;50.838;12.094;2024-01-15T00:40:54;3.70;54.40
18287;DHT22;9269;50.838;12.094;2024-01-15T00:43:42;3.60;54.20
18287;DHT22;9269;50.838;12.094;2024-01-15T00:46:30;3.90;53.90
18287;DHT22;9269;50.838;12.094;2024-01-15T00:48:58;3.60;54.10
18287;DHT22;9269;50.838;12.094;2024-01-15T00:51:28;3.70;54.20
18287;DHT22;9269;50.838;12.094;2024-01-15T00:53:58;3.60;54.00
18287;DHT22;9269;50.838;12.094;2024-01-15T00:56:27;3.50;54.10
18287;DHT22;9269;50.838;12.094;2024-01-15T00:58:59;3.60;54.10
18287;DHT22;9269;50.838;12.094;2024-01-15T01:01:47;3.60;54.30
18287;DHT22;9269;50.838;12.094;2024-01-15T01:04:16;3.70;54.20
18287;DHT22;9269;50.838;12.094;2024-01-15T01:06:47;3.80;54.00
18287;DHT22;9269;50.838;12.094;2024-01-15T01:09:17;3.50;54.10
18287;DHT22;9269;50.838;12.094;2024-01-15T01:11:45;3.60;53.90
18287;DHT22;9269;50.838;12.094;2024-01-15T01:14:17;3.80;54.20
18287;DHT22;9269;50.838;12.094;2024-01-15T01:16:47;3.60;53.90
18287;DHT22;9269;50.838;12.094;2024-01-15T01:19:15;3.70;53.80
18287;DHT22;9269;50.838;12.094;2024-01-15T01:21:45;3.70;53.90
18287;DHT22;9269;50.838;12.094;2024-01-15T01:24:13;3.60;54.00
18287;DHT22;9269;50.838;12.094;2024-01-15T01:26:44;3.80;53.70
18287;DHT22;9269;50.838;12.094;2024-01-15T01:29:13;3.70;53.70
18287;DHT22;9269;50.838;12.094;2024-01-15T01:31:43;3.50;53.50
18287;DHT22;9269;50.838;12.094;2024-01-15T01:34:14;3.60;53.50
18287;DHT22;9269;50.838;12.094;2024-01-15T01:36:43;3.50;53.20
18287;DHT22;9269;50.838;12.094;2024-01-15T01:39:11;3.50;53.40
18287;DHT22;9269;50.838;12.094;2024-01-15T01:41:40;3.50;53.00
18287;DHT22;9269;50.838;12.094;2024-01-15T01:44:10;3.40;53.10
18287;DHT22;9269;50.838;12.094;2024-01-15T01:46:39;3.50;53.30
18287;DHT22;9269;50.838;12.094;2024-01-15T01:49:09;3.50;53.30
18287;DHT22;9269;50.838;12.094;2024-01-15T01:51:38;3.60;53.00
18287;DHT22;9269;50.838;12.094;2024-01-15T01:54:08;3.70;53.00
18287;DHT22;9269;50.838;12.094;2024-01-15T01:56:40;3.70;53.20
18287;DHT22;9269;50.838;12.094;2024-01-15T01:59:11;3.60;52.70
18287;DHT22;9269;50.838;12.094;2024-01-15T02:01:44;3.70;53.10
18287;DHT22;9269;50.838;12.094;2024-01-15T02:04:14;3.40;52.70
18287;DHT22;9269;50.838;12.094;2024-01-15T02:06:48;3.60;52.80
18287;DHT22;9269;50.838;12.094;2024-01-15T02:09:17;3.60;52.60
18287;DHT22;9269;50.838;12.094;2024-01-15T02:11:47;3.50;52.50
18287;DHT22;9269;50.838;12.094;2024-01-15T02:14:16;3.60;52.70
18287;DHT22;9269;50.838;12.094;2024-01-15T02:16:45;3.60;52.80
18287;DHT22;9269;50.838;12.094;2024-01-15T02:19:17;3.50;52.70
18287;DHT22;9269;50.838;12.094;2024-01-15T02:21:50;3.50;52.40
18287;DHT22;9269;50.838;12.094;2024-01-15T02:24:20;3.50;52.60
18287;DHT22;9269;50.838;12.094;2024-01-15T02:27:08;3.60;52.10
18287;DHT22;9269;50.838;12.094;2024-01-15T02:29:36;3.40;52.80
18287;DHT22;9269;50.838;12.094;2024-01-15T02:32:05;3.30;52.20
18287;DHT22;9269;50.838;12.094;2024-01-15T02:34:34;3.40;52.50
18287;DHT22;9269;50.838;12.094;2024-01-15T02:37:03;3.20;52.10
18287;DHT22;9269;50.838;12.094;2024-01-15T02:39:48;3.30;52.00
18287;DHT22;9269;50.838;12.094;2024-01-15T02:42:18;3.40;51.80
18287;DHT22;9269;50.838;12.094;2024-01-15T02:44:48;3.50;51.60
18287;DHT22;9269;50.838;12.094;2024-01-15T02:47:18;3.40;51.50
18287;DHT22;9269;50.838;12.094;2024-01-15T02:49:47;3.30;51.70
18287;DHT22;9269;50.838;12.094;2024-01-15T02:52:15;3.50;51.80
18287;DHT22;9269;50.838;12.094;2024-01-15T02:54:44;3.40;51.80
18287;DHT22;9269;50.838;12.094;2024-01-15T02:57:14;3.30;51.90
18287;DHT22;9269;50.838;12.094;2024-01-15T02:59:43;3.40;51.60
18287;DHT22;9269;50.838;12.094;2024-01-15T03:02:12;3.10;51.60
18287;DHT22;9269;50.838;12.094;2024-01-15T03:04:43;3.40;51.90
18287;DHT22;9269;50.838;12.094;2024-01-15T03:07:17;3.20;51.40
18287;DHT22;9269;50.838;12.094;2024-01-15T03:09:45;3.40;51.50
18287;DHT22;9269;50.838;12.094;2024-01-15T03:12:16;3.30;51.50
18287;DHT22;9269;50.838;12.094;2024-01-15T03:14:53;3.30;51.30
18287;DHT22;9269;50.838;12.094;2024-01-15T03:17:22;3.30;51.30
18287;DHT22;9269;50.838;12.094;2024-01-15T03:19:52;3.30;51.30
18287;DHT22;9269;50.838;12.094;2024-01-15T03:22:22;3.30;51.30
18287;DHT22;9269;50.838;12.094;2024-01-15T03:24:53;3.10;51.20
18287;DHT22;9269;50.838;12.094;2024-01-15T03:27:24;3.20;51.20
18287;DHT22;9269;50.838;12.094;2024-01-15T03:29:53;3.30;51.60
18287;DHT22;9269;50.838;12.094;2024-01-15T03:32:22;3.30;51.00
18287;DHT22;9269;50.838;12.094;2024-01-15T03:34:50;3.20;51.00
18287;DHT22;9269;50.838;12.094;2024-01-15T03:37:20;3.10;51.00
18287;DHT22;9269;50.838;12.094;2024-01-15T03:39:48;3.20;51.00
18287;DHT22;9269;50.838;12.094;2024-01-15T03:42:17;3.10;50.80
18287;DHT22;9269;50.838;12.094;2024-01-15T03:44:47;3.10;51.30
18287;DHT22;9269;50.838;12.094;2024-01-15T03:47:16;3.10;51.10
18287;DHT22;9269;50.838;12.094;2024-01-15T03:49:45;3.20;50.80
18287;DHT22;9269;50.838;12.094;2024-01-15T03:52:14;3.20;51.20
18287;DHT22;9269;50.838;12.094;2024-01-15T03:54:43;3.10;51.00
18287;DHT22;9269;50.838;12.094;2024-01-15T03:57:11;3.10;50.80
18287;DHT22;9269;50.838;12.094;2024-01-15T03:59:40;3.30;51.10
18287;DHT22;9269;50.838;12.094;2024-01-15T04:02:10;3.30;51.00
18287;DHT22;9269;50.838;12.094;2024-01-15T04:04:41;3.30;50.60
18287;DHT22;9269;50.838;12.094;2024-01-15T04:07:11;3.20;50.90
18287;DHT22;9269;50.838;12.094;2024-01-15T04:09:39;3.20;50.80
18287;DHT22;9269;50.838;12.094;2024-01-15T04:12:08;3.20;50.80
18287;DHT22;9269;50.838;12.094;2024-01-15T04:14:36;3.00;50.50
18287;DHT22;9269;50.838;12.094;2024-01-15T04:17:05;2.90;50.60
18287;DHT22;9269;50.838;12.094;2024-01-15T04:19:38;3.00;50.00
18287;DHT22;9269;50.838;12.094;2024-01-15T04:22:07;3.20;50.60
18287;DHT22;9269;50.838;12.094;2024-01-15T04:24:35;3.00;50.30
18287;DHT22;9269;50.838;12.094;2024-01-15T04:27:05;3.10;50.10
18287;DHT22;9269;50.838;12.094;2024-01-15T04:29:33;3.10;50.40
18287;DHT22;9269;50.838;12.094;2024-01-15T04:32:06;3.20;50.30
18287;DHT22;9269;50.838;12.094;2024-01-15T04:34:37;3.10;50.50
18287;DHT22;9269;50.838;12.094;2024-01-15T04:37:07;3.10;50.30
18287;DHT22;9269;50.838;12.094;2024-01-15T04:39:35;3.10;50.40
18287;DHT22;9269;50.838;12.094;2024-01-15T04:42:04;3.40;50.10
18287;DHT22;9269;50.838;12.094;2024-01-15T04:44:52;3.20;50.60
18287;DHT22;9269;50.838;12.094;2024-01-15T04:47:21;3.30;50.30
18287;DHT22;9269;50.838;12.094;2024-01-15T04:49:51;3.20;50.50
18287;DHT22;9269;50.838;12.094;2024-01-15T04:52:19;3.40;50.40
18287;DHT22;9269;50.838;12.094;2024-01-15T04:54:49;3.20;50.40
18287;DHT22;9269;50.838;12.094;2024-01-15T04:57:18;3.10;50.40
18287;DHT22;9269;50.838;12.094;2024-01-15T04:59:47;3.30;50.50
18287;DHT22;9269;50.838;12.094;2024-01-15T05:02:16;3.10;50.50
18287;DHT22;9269;50.838;12.094;2024-01-15T05:04:45;3.30;50.50
18287;DHT22;9269;50.838;12.094;2024-01-15T05:07:16;3.30;50.10
18287;DHT22;9269;50.838;12.094;2024-01-15T05:09:46;3.20;50.30
18287;DHT22;9269;50.838;12.094;2024-01-15T05:12:16;3.40;50.20
18287;DHT22;9269;50.838;12.094;2024-01-15T05:14:45;3.40;50.30
18287;DHT22;9269;50.838;12.094;2024-01-15T05:17:13;3.20;50.70
18287;DHT22;9269;50.838;12.094;2024-01-15T05:19:43;3.20;50.60
18287;DHT22;9269;50.838;12.094;2024-01-15T05:22:12;3.20;50.70
18287;DHT22;9269;50.838;12.094;2024-01-15T05:24:42;3.10;50.10
18287;DHT22;9269;50.838;12.094;2024-01-15T05:27:10;3.10;50.20
18287;DHT22;9269;50.838;12.094;2024-01-15T05:29:42;3.20;50.30
18287;DHT22;9269;50.838;12.094;2024-01-15T05:32:17;3.10;50.30
18287;DHT22;9269;50.838;12.094;2024-01-15T05:34:47;3.10;50.20
18287;DHT22;9269;50.838;12.094;2024-01-15T05:37:18;3.10;50.30
18287;DHT22;9269;50.838;12.094;2024-01-15T05:39:48;3.00;50.30
18287;DHT22;9269;50.838;12.094;2024-01-15T05:42:16;3.20;50.50
18287;DHT22;9269;50.838;12.094;2024-01-15T05:44:47;3.10;50.40
18287;DHT22;9269;50.838;12.094;2024-01-15T05:47:16;3.30;50.20
18287;DHT22;9269;50.838;12.094;2024-01-15T05:49:45;3.20;50.20
18287;DHT22;9269;50.838;12.094;2024-01-15T05:52:14;3.10;50.60
18287;DHT22;9269;50.838;12.094;2024-01-15T05:54:44;3.10;50.20
18287;DHT22;9269;50.838;12.094;2024-01-15T05:57:15;3.00;50.20
18287;DHT22;9269;50.838;12.094;2024-01-15T05:59:45;3.10;50.00
18287;DHT22;9269;50.838;12.094;2024-01-15T06:02:13;3.00;50.30
18287;DHT22;9269;50.838;12.094;2024-01-15T06:04:42;3.10;50.10
18287;DHT22;9269;50.838;12.094;2024-01-15T06:07:31;3.00;49.90
18287;DHT22;9269;50.838;12.094;2024-01-15T06:10:19;2.80;50.20
18287;DHT22;9269;50.838;12.094;2024-01-15T06:12:50;2.80;50.50
18287;DHT22;9269;50.838;12.094;2024-01-15T06:15:22;2.80;50.10
18287;DHT22;9269;50.838;12.094;2024-01-15T06:17:54;2.60;50.20
18287;DHT22;9269;50.838;12.094;2024-01-15T06:20:42;2.80;50.20
18287;DHT22;9269;50.838;12.094;2024-01-15T06:23:27;2.90;50.30
18287;DHT22;9269;50.838;12.094;2024-01-15T06:25:58;3.10;50.00
18287;DHT22;9269;50.838;12.094;2024-01-15T06:28:48;2.80;49.80
18287;DHT22;9269;50.838;12.094;2024-01-15T06:31:36;3.00;49.90
18287;DHT22;9269;50.838;12.094;2024-01-15T06:34:06;2.80;49.80
18287;DHT22;9269;50.838;12.094;2024-01-15T06:36:54;2.70;50.10
18287;DHT22;9269;50.838;12.094;2024-01-15T06:39:23;2.80;49.50
18287;DHT22;9269;50.838;12.094;2024-01-15T06:42:11;2.90;49.90
18287;DHT22;9269;50.838;12.094;2024-01-15T06:44:47;3.00;49.80
18287;DHT22;9269;50.838;12.094;2024-01-15T06:47:21;2.90;49.90
18287;DHT22;9269;50.838;12.094;2024-01-15T06:50:04;3.00;49.60
18287;DHT22;9269;50.838;12.094;2024-01-15T06:52:34;3.00;49.70
18287;DHT22;9269;50.838;12.094;2024-01-15T06:55:14;2.90;49.80
18287;DHT22;9269;50.838;12.094;2024-01-15T06:58:03;3.00;49.80
18287;DHT22;9269;50.838;12.094;2024-01-15T07:00:33;2.80;49.70
18287;DHT22;9269;50.838;12.094;2024-01-15T07:03:11;2.60;49.70
18287;DHT22;9269;50.838;12.094;2024-01-15T07:05:42;2.90;49.50
18287;DHT22;9269;50.838;12.094;2024-01-15T07:08:12;2.80;49.60
18287;DHT22;9269;50.838;12.094;2024-01-15T07:10:40;2.90;49.60
18287;DHT22;9269;50.838;12.094;2024-01-15T07:13:09;2.80;49.40
18287;DHT22;9269;50.838;12.094;2024-01-15T07:15:44;2.80;49.80
18287;DHT22;9269;50.838;12.094;2024-01-15T07:18:32;2.70;49.80
18287;DHT22;9269;50.838;12.094;2024-01-15T07:21:04;2.60;49.50
18287;DHT22;9269;50.838;12.094;2024-01-15T07:23:33;2.70;49.30
18287;DHT22;9269;50.838;12.094;2024-01-15T07:26:04;2.90;49.50
18287;DHT22;9269;50.838;12.094;2024-01-15T07:28:33;2.80;49.20
18287;DHT22;9269;50.838;12.094;2024-01-15T07:31:04;3.00;49.40
18287;DHT22;9269;50.838;12.094;2024-01-15T07:33:34;2.90;49.10
18287;DHT22;9269;50.838;12.094;2024-01-15T07:36:07;2.70;49.60
18287;DHT22;9269;50.838;12.094;2024-01-15T07:38:37;2.80;49.40
18287;DHT22;9269;50.838;12.094;2024-01-15T07:41:06;2.80;49.30
18287;DHT22;9269;50.838;12.094;2024-01-15T07:43:35;2.80;49.00
18287;DHT22;9269;50.838;12.094;2024-01-15T07:46:06;2.80;49.00
18287;DHT22;9269;50.838;12.094;2024-01-15T07:48:38;3.00;49.30
18287;DHT22;9269;50.838;12.094;2024-01-15T07:51:08;2.80;49.50
18287;DHT22;9269;50.838;12.094;2024-01-15T07:53:39;3.10;49.40
18287;DHT22;9269;50.838;12.094;2024-01-15T07:56:08;2.90;48.90
18287;DHT22;9269;50.838;12.094;2024-01-15T07:58:38;3.00;48.90
18287;DHT22;9269;50.838;12.094;2024-01-15T08:01:08;2.90;48.80
18287;DHT22;9269;50.838;12.094;2024-01-15T08:03:37;3.00;48.90
18287;DHT22;9269;50.838;12.094;2024-01-15T08:06:25;3.20;48.50
18287;DHT22;9269;50.838;12.094;2024-01-15T08:09:13;3.00;49.10
18287;DHT22;9269;50.838;12.094;2024-01-15T08:12:02;3.10;49.10
18287;DHT22;9269;50.838;12.094;2024-01-15T08:14:33;3.10;48.60
18287;DHT22;9269;50.838;12.094;2024-01-15T08:17:23;3.00;48.90
18287;DHT22;9269;50.838;12.094;2024-01-15T08:19:56;3.10;48.70
18287;DHT22;9269;50.838;12.094;2024-01-15T08:22:28;3.10;48.80
18287;DHT22;9269;50.838;12.094;2024-01-15T08:25:00;3.10;48.60
18287;DHT22;9269;50.838;12.094;2024-01-15T08:27:29;3.40;48.40
18287;DHT22;9269;50.838;12.094;2024-01-15T08:29:58;3.30;48.30
18287;DHT22;9269;50.838;12.094;2024-01-15T08:32:32;3.20;48.30
18287;DHT22;9269;50.838;12.094;2024-01-15T08:35:04;3.30;48.40
18287;DHT22;9269;50.838;12.094;2024-01-15T08:37:53;3.10;48.40
18287;DHT22;9269;50.838;12.094;2024-01-15T08:40:24;3.20;48.40
18287;DHT22;9269;50.838;12.094;2024-01-15T08:43:03;3.30;48.40
18287;DHT22;9269;50.838;12.094;2024-01-15T08:45:35;3.20;48.30
18287;DHT22;9269;50.838;12.094;2024-01-15T08:48:08;3.20;48.30
18287;DHT22;9269;50.838;12.094;2024-01-15T08:50:42;3.20;48.40
18287;DHT22;9269;50.838;12.094;2024-01-15T08:53:13;3.00;48.20
18287;DHT22;9269;50.838;12.094;2024-01-15T08:55:43;3.10;48.00
18287;DHT22;9269;50.838;12.094;2024-01-15T08:58:13;3.30;48.50
18287;DHT22;9269;50.838;12.094;2024-01-15T09:00:44;3.10;48.10
18287;DHT22;9269;50.838;12.094;2024-01-15T09:03:14;3.40;47.90
18287;DHT22;9269;50.838;12.094;2024-01-15T09:05:47;3.40;48.00
18287;DHT22;9269;50.838;12.094;2024-01-15T09:08:19;3.30;48.00
18287;DHT22;9269;50.838;12.094;2024-01-15T09:11:07;3.30;48.00
18287;DHT22;9269;50.838;12.094;2024-01-15T09:13:38;3.10;47.80
18287;DHT22;9269;50.838;12.094;2024-01-15T09:16:07;3.30;48.30
18287;DHT22;9269;50.838;12.094;2024-01-15T09:18:39;3.30;47.80
18287;DHT22;9269;50.838;12.094;2024-01-15T09:21:19;3.10;47.40
18287;DHT22;9269;50.838;12.094;2024-01-15T09:23:48;3.20;47.50
18287;DHT22;9269;50.838;12.094;2024-01-15T09:26:17;3.40;47.40
18287;DHT22;9269;50.838;12.094;2024-01-15T09:28:47;3.30;47.90
18287;DHT22;9269;50.838;12.094;2024-01-15T09:31:17;3.40;47.40
18287;DHT22;9269;50.838;12.094;2024-01-15T09:33:49;3.60;47.20
18287;DHT22;9269;50.838;12.094;2024-01-15T09:36:22;3.40;47.40
18287;DHT22;9269;50.838;12.094;2024-01-15T09:39:11;3.50;47.20
18287;DHT22;9269;50.838;12.094;2024-01-15T09:41:43;3.50;47.40
18287;DHT22;9269;50.838;12.094;2024-01-15T09:44:15;3.40;47.30
18287;DHT22;9269;50.838;12.094;2024-01-15T09:46:50;3.40;47.10
18287;DHT22;9269;50.838;12.094;2024-01-15T09:49:23;3.70;47.30
18287;DHT22;9269;50.838;12.094;2024-01-15T09:51:53;3.50;47.00
18287;DHT22;9269;50.838;12.094;2024-01-15T09:54:35;3.70;47.10
18287;DHT22;9269;50.838;12.094;2024-01-15T09:57:06;3.60;47.10
18287;DHT22;9269;50.838;12.094;2024-01-15T09:59:38;3.70;47.10
18287;DHT22;9269;50.838;12.094;2024-01-15T10:02:27;3.70;46.80
18287;DHT22;9269;50.838;12.094;2024-01-15T10:04:58;4.00;47.10
18287;DHT22;9269;50.838;12.094;2024-01-15T10:07:37;3.70;46.80
18287;DHT22;9269;50.838;12.094;2024-01-15T10:10:09;3.70;46.70
18287;DHT22;9269;50.838;12.094;2024-01-15T10:12:59;3.90;46.40
18287;DHT22;9269;50.838;12.094;2024-01-15T10:15:28;3.80;46.70
18287;DHT22;9269;50.838;12.094;2024-01-15T10:17:59;3.90;46.40
18287;DHT22;9269;50.838;12.094;2024-01-15T10:20:44;4.10;46.10
18287;DHT22;9269;50.838;12.094;2024-01-15T10:23:21;4.00;46.10
18287;DHT22;9269;50.838;12.094;2024-01-15T10:25:50;4.10;45.90
18287;DHT22;9269;50.838;12.094;2024-01-15T10:28:20;4.10;45.70
18287;DHT22;9269;50.838;12.094;2024-01-15T10:31:08;4.20;45.70
18287;DHT22;9269;50.838;12.094;2024-01-15T10:33:39;4.10;45.40
18287;DHT22;9269;50.838;12.094;2024-01-15T10:36:10;4.00;45.50
18287;DHT22;9269;50.838;12.094;2024-01-15T10:38:41;4.10;45.70
18287;DHT22;9269;50.838;12.094;2024-01-15T10:41:12;4.30;45.70
18287;DHT22;9269;50.838;12.094;2024-01-15T10:43:45;4.30;45.30
18287;DHT22;9269;50.838;12.094;2024-01-15T10:46:14;4.40;45.50
18287;DHT22;9269;50.838;12.094;2024-01-15T10:48:47;4.30;45.30
18287;DHT22;9269;50.838;12.094;2024-01-15T10:51:18;4.30;45.50
18287;DHT22;9269;50.838;12.094;2024-01-15T10:53:47;4.40;45.60
18287;DHT22;9269;50.838;12.094;2024-01-15T10:56:23;4.70;45.30
18287;DHT22;9269;50.838;12.094;2024-01-15T10:58:54;4.70;45.30
18287;DHT22;9269;50.838;12.094;2024-01-15T11:01:30;4.70;45.00
18287;DHT22;9269;50.838;12.094;2024-01-15T11:04:03;4.80;45.10
18287;DHT22;9269;50.838;12.094;2024-01-15T11:06:43;4.80;45.10
18287;DHT22;9269;50.838;12.094;2024-01-15T11:09:14;4.90;45.40
18287;DHT22;9269;50.838;12.094;2024-01-15T11:12:07;5.00;45.00
18287;DHT22;9269;50.838;12.094;2024-01-15T11:14:44;5.10;44.80
18287;DHT22;9269;50.838;12.094;2024-01-15T11:17:16;5.00;44.60
18287;DHT22;9269;50.838;12.094;2024-01-15T11:19:47;5.10;44.60
18287;DHT22;9269;50.838;12.094;2024-01-15T11:22:49;5.00;44.80
18287;DHT22;9269;50.838;12.094;2024-01-15T11:25:20;5.10;44.80
18287;DHT22;9269;50.838;12.094;2024-01-15T11:27:50;5.00;44.90
18287;DHT22;9269;50.838;12.094;2024-01-15T11:30:25;5.00;44.70
18287;DHT22;9269;50.838;12.094;2024-01-15T11:33:34;5.10;44.50
18287;DHT22;9269;50.838;12.094;2024-01-15T11:36:03;5.20;44.70
18287;DHT22;9269;50.838;12.094;2024-01-15T11:38:44;5.30;44.60
18287;DHT22;9269;50.838;12.094;2024-01-15T11:41:32;5.20;44.80
18287;DHT22;9269;50.838;12.094;2024-01-15T11:44:01;5.10;44.40
18287;DHT22;9269;50.838;12.094;2024-01-15T11:46:37;5.10;44.80
18287;DHT22;9269;50.838;12.094;2024-01-15T11:49:36;5.30;44.60
18287;DHT22;9269;50.838;12.094;2024-01-15T11:52:16;5.30;44.70
18287;DHT22;9269;50.838;12.094;2024-01-15T11:54:54;5.00;44.00
18287;DHT22;9269;50.838;12.094;2024-01-15T11:57:32;5.00;43.90
18287;DHT22;9269;50.838;12.094;2024-01-15T12:00:04;4.90;44.30
18287;DHT22;9269;50.838;12.094;2024-01-15T12:02:54;4.90;44.10
18287;DHT22;9269;50.838;12.094;2024-01-15T12:05:24;4.70;44.30
18287;DHT22;9269;50.838;12.094;2024-01-15T12:07:53;4.80;44.20
18287;DHT22;9269;50.838;12.094;2024-01-15T12:10:23;5.00;44.10
18287;DHT22;9269;50.838;12.094;2024-01-15T12:13:13;4.90;44.20
18287;DHT22;9269;50.838;12.094;2024-01-15T12:16:01;4.90;44.30
18287;DHT22;9269;50.838;12.094;2024-01-15T12:18:33;4.80;44.70
18287;DHT22;9269;50.838;12.094;2024-01-15T12:21:04;4.70;44.30
18287;DHT22;9269;50.838;12.094;2024-01-15T12:23:52;4.70;44.10
18287;DHT22;9269;50.838;12.094;2024-01-15T12:26:25;4.80;44.30
18287;DHT22;9269;50.838;12.094;2024-01-15T12:28:56;4.90;44.60
18287;DHT22;9269;50.838;12.094;2024-01-15T12:31:27;4.90;44.50
18287;DHT22;9269;50.838;12.094;2024-01-15T12:33:57;4.90;44.60
18287;DHT22;9269;50.838;12.094;2024-01-15T12:36:31;4.90;44.40
18287;DHT22;9269;50.838;12.094;2024-01-15T12:39:20;5.20;44.20
18287;DHT22;9269;50.838;12.094;2024-01-15T12:41:51;5.00;44.40
18287;DHT22;9269;50.838;12.094;2024-01-15T12:44:23;5.10;44.40
18287;DHT22;9269;50.838;12.094;2024-01-15T12:47:02;5.10;44.20
18287;DHT22;9269;50.838;12.094;2024-01-15T12:49:32;5.30;44.20
18287;DHT22;9269;50.838;12.094;2024-01-15T12:52:09;5.20;43.90
18287;DHT22;9269;50.838;12.094;2024-01-15T12:54:40;5.30;44.00
18287;DHT22;9269;50.838;12.094;2024-01-15T12:57:13;5.40;44.00
18287;DHT22;9269;50.838;12.094;2024-01-15T12:59:44;5.50;43.80
18287;DHT22;9269;50.838;12.094;2024-01-15T13:02:13;5.50;43.50
18287;DHT22;9269;50.838;12.094;2024-01-15T13:05:03;5.40;43.60
18287;DHT22;9269;50.838;12.094;2024-01-15T13:07:33;5.50;43.40
18287;DHT22;9269;50.838;12.094;2024-01-15T13:10:04;5.20;43.80
18287;DHT22;9269;50.838;12.094;2024-01-15T13:12:34;5.20;43.50
18287;DHT22;9269;50.838;12.094;2024-01-15T13:15:04;5.40;43.70
18287;DHT22;9269;50.838;12.094;2024-01-15T13:17:35;5.30;43.50
18287;DHT22;9269;50.838;12.094;2024-01-15T13:20:06;5.30;43.80
18287;DHT22;9269;50.838;12.094;2024-01-15T13:22:36;5.30;43.70
18287;DHT22;9269;50.838;12.094;2024-01-15T13:25:08;5.40;43.60
18287;DHT22;9269;50.838;12.094;2024-01-15T13:27:41;5.40;43.50
18287;DHT22;9269;50.838;12.094;2024-01-15T13:30:12;5.30;43.60
18287;DHT22;9269;50.838;12.094;2024-01-15T13:32:41;5.40;43.70
18287;DHT22;9269;50.838;12.094;2024-01-15T13:35:10;5.40;43.70
18287;DHT22;9269;50.838;12.094;2024-01-15T13:37:42;5.40;44.00
18287;DHT22;9269;50.838;12.094;2024-01-15T13:40:30;5.30;44.00
18287;DHT22;9269;50.838;12.094;2024-01-15T13:43:02;5.50;44.30
18287;DHT22;9269;50.838;12.094;2024-01-15T13:45:34;5.40;44.20
18287;DHT22;9269;50.838;12.094;2024-01-15T13:48:07;5.40;44.20
18287;DHT22;9269;50.838;12.094;2024-01-15T13:50:40;5.40;44.20
18287;DHT22;9269;50.838;12.094;2024-01-15T13:53:09;5.20;44.20
18287;DHT22;9269;50.838;12.094;2024-01-15T13:55:38;5.20;44.40
18287;DHT22;9269;50.838;12.094;2024-01-15T13:58:09;5.20;44.60
18287;DHT22;9269;50.838;12.094;2024-01-15T14:00:37;5.10;44.20
18287;DHT22;9269;50.838;12.094;2024-01-15T14:03:06;4.90;44.60
18287;DHT22;9269;50.838;12.094;2024-01-15T14:05:37;5.10;44.50
18287;DHT22;9269;50.838;12.094;2024-01-15T14:08:06;5.10;44.70
18287;DHT22;9269;50.838;12.094;2024-01-15T14:10:37;4.90;44.60
18287;DHT22;9269;50.838;12.094;2024-01-15T14:13:06;4.80;44.40
18287;DHT22;9269;50.838;12.094;2024-01-15T14:15:57;5.00;44.70
18287;DHT22;9269;50.838;12.094;2024-01-15T14:18:37;5.10;44.50
18287;DHT22;9269;50.838;12.094;2024-01-15T14:21:06;5.10;44.70
18287;DHT22;9269;50.838;12.094;2024-01-15T14:23:35;5.00;44.60
18287;DHT22;9269;50.838;12.094;2024-01-15T14:26:04;5.10;45.00
18287;DHT22;9269;50.838;12.094;2024-01-15T14:28:35;4.90;44.80
18287;DHT22;9269;50.838;12.094;2024-01-15T14:31:06;5.10;44.80
18287;DHT22;9269;50.838;12.094;2024-01-15T14:33:44;4.90;44.40
18287;DHT22;9269;50.838;12.094;2024-01-15T14:36:13;4.90;44.60
18287;DHT22;9269;50.838;12.094;2024-01-15T14:38:43;4.70;44.80
18287;DHT22;9269;50.838;12.094;2024-01-15T14:41:12;4.90;44.70
18287;DHT22;9269;50.838;12.094;2024-01-15T14:43:41;4.90;44.70
18287;DHT22;9269;50.838;12.094;2024-01-15T14:46:11;4.90;44.80
18287;DHT22;9269;50.838;12.094;2024-01-15T14:48:40;4.70;44.80
18287;DHT22;9269;50.838;12.094;2024-01-15T14:51:09;4.70;45.00
18287;DHT22;9269;50.838;12.094;2024-01-15T14:53:40;4.60;45.50
18287;DHT22;9269;50.838;12.094;2024-01-15T14:56:08;4.70;45.70
18287;DHT22;9269;50.838;12.094;2024-01-15T14:58:37;4.60;45.30
18287;DHT22;9269;50.838;12.094;2024-01-15T15:01:06;4.80;45.90
18287;DHT22;9269;50.838;12.094;2024-01-15T15:03:37;4.60;46.10
18287;DHT22;9269;50.838;12.094;2024-01-15T15:06:07;4.60;45.70
18287;DHT22;9269;50.838;12.094;2024-01-15T15:08:37;4.60;46.20
18287;DHT22;9269;50.838;12.094;2024-01-15T15:11:06;4.50;46.40
18287;DHT22;9269;50.838;12.094;2024-01-15T15:13:36;4.50;46.10
18287;DHT22;9269;50.838;12.094;2024-01-15T15:16:16;4.60;46.40
18287;DHT22;9269;50.838;12.094;2024-01-15T15:18:47;4.50;46.60
18287;DHT22;9269;50.838;12.094;2024-01-15T15:21:17;4.50;46.80
18287;DHT22;9269;50.838;12.094;2024-01-15T15:23:47;4.50;46.90
18287;DHT22;9269;50.838;12.094;2024-01-15T15:26:15;4.40;46.80
18287;DHT22;9269;50.838;12.094;2024-01-15T15:28:44;4.60;46.50
18287;DHT22;9269;50.838;12.094;2024-01-15T15:31:13;4.50;46.70
18287;DHT22;9269;50.838;12.094;2024-01-15T15:33:42;4.60;46.70
18287;DHT22;9269;50.838;12.094;2024-01-15T15:36:13;4.40;47.10
18287;DHT22;9269;50.838;12.094;2024-01-15T15:38:43;4.30;47.00
18287;DHT22;9269;50.838;12.094;2024-01-15T15:41:12;4.50;47.00
18287;DHT22;9269;50.838;12.094;2024-01-15T15:43:41;4.50;46.90
18287;DHT22;9269;50.838;12.094;2024-01-15T15:46:11;4.30;47.00
18287;DHT22;9269;50.838;12.094;2024-01-15T15:48:39;4.40;47.10
18287;DHT22;9269;50.838;12.094;2024-01-15T15:51:29;4.40;47.20
18287;DHT22;9269;50.838;12.094;2024-01-15T15:53:58;4.40;47.20
18287;DHT22;9269;50.838;12.094;2024-01-15T15:56:29;4.40;47.40
18287;DHT22;9269;50.838;12.094;2024-01-15T15:59:02;4.50;47.20
18287;DHT22;9269;50.838;12.094;2024-01-15T16:01:30;4.60;47.10
18287;DHT22;9269;50.838;12.094;2024-01-15T16:04:00;4.50;47.00
18287;DHT22;9269;50.838;12.094;2024-01-15T16:06:30;4.40;47.30
18287;DHT22;9269;50.838;12.094;2024-01-15T16:09:02;4.50;47.30
18287;DHT22;9269;50.838;12.094;2024-01-15T16:11:31;4.20;47.10
18287;DHT22;9269;50.838;12.094;2024-01-15T16:13:59;4.30;47.50
18287;DHT22;9269;50.838;12.094;2024-01-15T16:16:32;4.40;47.30
18287;DHT22;9269;50.838;12.094;2024-01-15T16:19:41;4.40;47.50
18287;DHT22;9269;50.838;12.094;2024-01-15T16:22:32;4.50;47.20
18287;DHT22;9269;50.838;12.094;2024-01-15T16:25:21;4.20;47.20